sensor_id;sensor_type;location;lat;lon;timestamp;temperature;humidity
43894;DHT22;29556;50.846;4.442;2022-10-16T00:01:13;15.50;92.50
43894;DHT22;29556;50.846;4.442;2022-10-16T00:03:43;15.50;92.50
43894;DHT22;29556;50.846;4.442;2022-10-16T00:06:10;15.60;92.50
43894;DHT22;29556;50.846;4.442;2022-10-16T00:08:37;15.50;92.40
43894;DHT22;29556;50.846;4.442;2022-10-16T00:11:11;15.50;92.50
43894;DHT22;29556;50.846;4.442;2022-10-16T00:13:40;15.50;92.50
43894;DHT22;29556;50.846;4.442;2022-10-16T00:16:06;15.50;92.80
43894;DHT22;29556;50.846;4.442;2022-10-16T00:18:32;15.40;92.30
43894;DHT22;29556;50.846;4.442;2022-10-16T00:21:03;15.40;92.40
43894;DHT22;29556;50.846;4.442;2022-10-16T00:23:29;15.40;92.40
43894;DHT22;29556;50.846;4.442;2022-10-16T00:26:00;15.40;92.40
43894;DHT22;29556;50.846;4.442;2022-10-16T00:28:26;15.50;92.40
43894;DHT22;29556;50.846;4.442;2022-10-16T00:30:53;15.40;92.40
43894;DHT22;29556;50.846;4.442;2022-10-16T00:33:19;15.40;92.40
43894;DHT22;29556;50.846;4.442;2022-10-16T00:35:45;15.50;92.40
43894;DHT22;29556;50.846;4.442;2022-10-16T00:38:11;15.50;92.40
43894;DHT22;29556;50.846;4.442;2022-10-16T00:40:36;15.50;92.40
43894;DHT22;29556;50.846;4.442;2022-10-16T00:43:02;15.40;92.40
43894;DHT22;29556;50.846;4.442;2022-10-16T00:45:28;15.40;92.40
43894;DHT22;29556;50.846;4.442;2022-10-16T00:47:55;15.40;92.40
43894;DHT22;29556;50.846;4.442;2022-10-16T00:50:31;15.40;92.30
43894;DHT22;29556;50.846;4.442;2022-10-16T00:52:58;15.40;92.40
43894;DHT22;29556;50.846;4.442;2022-10-16T00:55:26;15.40;92.40
43894;DHT22;29556;50.846;4.442;2022-10-16T00:57:54;15.30;92.40
43894;DHT22;29556;50.846;4.442;2022-10-16T01:00:25;15.30;92.40
43894;DHT22;29556;50.846;4.442;2022-10-16T01:03:01;15.40;92.40
43894;DHT22;29556;50.846;4.442;2022-10-16T01:05:38;15.40;92.50
43894;DHT22;29556;50.846;4.442;2022-10-16T01:08:18;15.30;92.40
43894;DHT22;29556;50.846;4.442;2022-10-16T01:11:09;15.30;92.50
43894;DHT22;29556;50.846;4.442;2022-10-16T01:13:41;15.30;92.50
43894;DHT22;29556;50.846;4.442;2022-10-16T01:16:16;15.30;92.60
43894;DHT22;29556;50.846;4.442;2022-10-16T01:18:53;15.30;92.60
43894;DHT22;29556;50.846;4.442;2022-10-16T01:21:28;15.30;92.50
43894;DHT22;29556;50.846;4.442;2022-10-16T01:26:36;15.20;92.60
43894;DHT22;29556;50.846;4.442;2022-10-16T01:29:18;15.30;92.70
43894;DHT22;29556;50.846;4.442;2022-10-16T01:31:48;15.20;92.70
43894;DHT22;29556;50.846;4.442;2022-10-16T01:34:19;15.30;92.60
43894;DHT22;29556;50.846;4.442;2022-10-16T01:36:55;15.30;92.70
43894;DHT22;29556;50.846;4.442;2022-10-16T01:39:25;15.30;92.70
43894;DHT22;29556;50.846;4.442;2022-10-16T01:42:01;15.30;92.70
43894;DHT22;29556;50.846;4.442;2022-10-16T01:44:31;15.30;92.70
43894;DHT22;29556;50.846;4.442;2022-10-16T01:46:58;15.30;92.70
43894;DHT22;29556;50.846;4.442;2022-10-16T01:49:26;15.20;92.70
43894;DHT22;29556;50.846;4.442;2022-10-16T01:51:56;15.20;92.70
43894;DHT22;29556;50.846;4.442;2022-10-16T01:54:28;15.30;92.70
43894;DHT22;29556;50.846;4.442;2022-10-16T01:56:56;15.30;92.70
43894;DHT22;29556;50.846;4.442;2022-10-16T01:59:26;15.30;92.70
43894;DHT22;29556;50.846;4.442;2022-10-16T02:02:00;15.30;92.60
43894;DHT22;29556;50.846;4.442;2022-10-16T02:04:34;15.20;92.70
43894;DHT22;29556;50.846;4.442;2022-10-16T02:07:01;15.30;92.80
43894;DHT22;29556;50.846;4.442;2022-10-16T02:09:27;15.20;92.90
43894;DHT22;29556;50.846;4.442;2022-10-16T02:11:55;15.30;92.90
43894;DHT22;29556;50.846;4.442;2022-10-16T02:14:23;15.30;92.90
43894;DHT22;29556;50.846;4.442;2022-10-16T02:16:50;15.30;92.90
43894;DHT22;29556;50.846;4.442;2022-10-16T02:19:17;15.30;92.90
43894;DHT22;29556;50.846;4.442;2022-10-16T02:22:02;15.20;92.90
43894;DHT22;29556;50.846;4.442;2022-10-16T02:24:50;15.20;92.90
43894;DHT22;29556;50.846;4.442;2022-10-16T02:30:14;15.30;93.00
43894;DHT22;29556;50.846;4.442;2022-10-16T02:32:45;15.20;93.00
43894;DHT22;29556;50.846;4.442;2022-10-16T02:35:12;15.20;93.00
43894;DHT22;29556;50.846;4.442;2022-10-16T02:37:38;15.20;93.00
43894;DHT22;29556;50.846;4.442;2022-10-16T02:40:07;15.30;93.10
43894;DHT22;29556;50.846;4.442;2022-10-16T02:42:39;15.20;93.10
43894;DHT22;29556;50.846;4.442;2022-10-16T02:45:06;15.30;93.10
43894;DHT22;29556;50.846;4.442;2022-10-16T02:47:32;15.30;93.10
43894;DHT22;29556;50.846;4.442;2022-10-16T02:49:57;15.30;93.20
43894;DHT22;29556;50.846;4.442;2022-10-16T02:52:23;15.20;93.10
43894;DHT22;29556;50.846;4.442;2022-10-16T02:54:49;15.20;93.10
43894;DHT22;29556;50.846;4.442;2022-10-16T02:57:14;15.20;93.10
43894;DHT22;29556;50.846;4.442;2022-10-16T02:59:40;15.20;93.20
43894;DHT22;29556;50.846;4.442;2022-10-16T03:02:06;15.20;93.20
43894;DHT22;29556;50.846;4.442;2022-10-16T03:04:31;15.30;93.30
43894;DHT22;29556;50.846;4.442;2022-10-16T03:06:57;15.30;93.20
43894;DHT22;29556;50.846;4.442;2022-10-16T03:09:22;15.20;93.30
43894;DHT22;29556;50.846;4.442;2022-10-16T03:11:48;15.30;93.30
43894;DHT22;29556;50.846;4.442;2022-10-16T03:14:14;15.30;93.30
43894;DHT22;29556;50.846;4.442;2022-10-16T03:16:39;15.30;93.40
43894;DHT22;29556;50.846;4.442;2022-10-16T03:19:05;15.30;93.40
43894;DHT22;29556;50.846;4.442;2022-10-16T03:21:31;15.30;93.40
43894;DHT22;29556;50.846;4.442;2022-10-16T03:23:57;15.30;93.40
43894;DHT22;29556;50.846;4.442;2022-10-16T03:26:22;15.30;93.40
43894;DHT22;29556;50.846;4.442;2022-10-16T03:28:48;15.30;93.40
43894;DHT22;29556;50.846;4.442;2022-10-16T03:31:13;15.30;93.50
43894;DHT22;29556;50.846;4.442;2022-10-16T03:33:39;15.30;93.50
43894;DHT22;29556;50.846;4.442;2022-10-16T03:36:05;15.30;93.50
43894;DHT22;29556;50.846;4.442;2022-10-16T03:38:31;15.30;93.50
43894;DHT22;29556;50.846;4.442;2022-10-16T03:40:56;15.30;93.50
43894;DHT22;29556;50.846;4.442;2022-10-16T03:43:22;15.30;93.50
43894;DHT22;29556;50.846;4.442;2022-10-16T03:45:49;15.40;93.60
43894;DHT22;29556;50.846;4.442;2022-10-16T03:48:15;15.30;93.60
43894;DHT22;29556;50.846;4.442;2022-10-16T03:50:40;15.30;93.60
43894;DHT22;29556;50.846;4.442;2022-10-16T03:53:06;15.30;93.60
43894;DHT22;29556;50.846;4.442;2022-10-16T03:55:31;15.30;93.60
43894;DHT22;29556;50.846;4.442;2022-10-16T03:57:57;15.30;93.90
43894;DHT22;29556;50.846;4.442;2022-10-16T04:00:23;15.30;93.60
43894;DHT22;29556;50.846;4.442;2022-10-16T04:02:48;15.30;93.60
43894;DHT22;29556;50.846;4.442;2022-10-16T04:05:14;15.30;93.60
43894;DHT22;29556;50.846;4.442;2022-10-16T04:07:40;15.30;93.70
43894;DHT22;29556;50.846;4.442;2022-10-16T04:10:06;15.30;93.70
43894;DHT22;29556;50.846;4.442;2022-10-16T04:12:31;15.30;93.70
43894;DHT22;29556;50.846;4.442;2022-10-16T04:14:57;15.20;93.90
43894;DHT22;29556;50.846;4.442;2022-10-16T04:17:23;15.20;93.80
43894;DHT22;29556;50.846;4.442;2022-10-16T04:19:48;15.30;93.80
43894;DHT22;29556;50.846;4.442;2022-10-16T04:22:14;15.30;93.80
43894;DHT22;29556;50.846;4.442;2022-10-16T04:24:40;15.20;93.80
43894;DHT22;29556;50.846;4.442;2022-10-16T04:27:05;15.20;93.90
43894;DHT22;29556;50.846;4.442;2022-10-16T04:29:31;15.20;93.90
43894;DHT22;29556;50.846;4.442;2022-10-16T04:31:56;15.20;93.90
43894;DHT22;29556;50.846;4.442;2022-10-16T04:34:22;15.30;93.90
43894;DHT22;29556;50.846;4.442;2022-10-16T04:36:48;15.20;93.90
43894;DHT22;29556;50.846;4.442;2022-10-16T04:39:15;15.30;93.90
43894;DHT22;29556;50.846;4.442;2022-10-16T04:41:41;15.20;93.90
43894;DHT22;29556;50.846;4.442;2022-10-16T04:44:06;15.20;93.90
43894;DHT22;29556;50.846;4.442;2022-10-16T04:46:32;15.20;93.90
43894;DHT22;29556;50.846;4.442;2022-10-16T04:48:58;15.20;93.80
43894;DHT22;29556;50.846;4.442;2022-10-16T04:51:24;15.20;93.90
43894;DHT22;29556;50.846;4.442;2022-10-16T04:53:51;15.20;93.90
43894;DHT22;29556;50.846;4.442;2022-10-16T04:56:16;15.20;94.20
43894;DHT22;29556;50.846;4.442;2022-10-16T04:58:42;15.10;93.90
43894;DHT22;29556;50.846;4.442;2022-10-16T05:01:08;15.20;93.90
43894;DHT22;29556;50.846;4.442;2022-10-16T05:03:34;15.20;94.00
43894;DHT22;29556;50.846;4.442;2022-10-16T05:05:59;15.20;94.00
43894;DHT22;29556;50.846;4.442;2022-10-16T05:08:25;15.20;93.90
43894;DHT22;29556;50.846;4.442;2022-10-16T05:10:52;15.10;94.00
43894;DHT22;29556;50.846;4.442;2022-10-16T05:13:17;15.10;94.10
43894;DHT22;29556;50.846;4.442;2022-10-16T05:15:47;15.10;94.10
43894;DHT22;29556;50.846;4.442;2022-10-16T05:18:13;15.10;94.20
43894;DHT22;29556;50.846;4.442;2022-10-16T05:20:39;15.00;94.20
43894;DHT22;29556;50.846;4.442;2022-10-16T05:23:05;15.00;94.50
43894;DHT22;29556;50.846;4.442;2022-10-16T05:25:30;15.10;94.10
43894;DHT22;29556;50.846;4.442;2022-10-16T05:27:56;15.00;94.10
43894;DHT22;29556;50.846;4.442;2022-10-16T05:30:22;15.00;94.20
43894;DHT22;29556;50.846;4.442;2022-10-16T05:32:49;15.10;94.20
43894;DHT22;29556;50.846;4.442;2022-10-16T05:35:16;15.00;94.10
43894;DHT22;29556;50.846;4.442;2022-10-16T05:37:43;15.00;94.20
43894;DHT22;29556;50.846;4.442;2022-10-16T05:40:10;15.00;94.20
43894;DHT22;29556;50.846;4.442;2022-10-16T05:42:36;14.90;94.10
43894;DHT22;29556;50.846;4.442;2022-10-16T05:45:03;15.00;94.30
43894;DHT22;29556;50.846;4.442;2022-10-16T05:47:29;14.90;94.20
43894;DHT22;29556;50.846;4.442;2022-10-16T05:49:55;14.90;94.20
43894;DHT22;29556;50.846;4.442;2022-10-16T05:52:21;15.00;94.20
43894;DHT22;29556;50.846;4.442;2022-10-16T05:54:46;14.90;94.20
43894;DHT22;29556;50.846;4.442;2022-10-16T05:57:12;14.80;94.20
43894;DHT22;29556;50.846;4.442;2022-10-16T05:59:38;14.90;94.30
43894;DHT22;29556;50.846;4.442;2022-10-16T06:02:03;14.80;94.40
43894;DHT22;29556;50.846;4.442;2022-10-16T06:04:29;14.80;94.30
43894;DHT22;29556;50.846;4.442;2022-10-16T06:06:58;14.80;94.50
43894;DHT22;29556;50.846;4.442;2022-10-16T06:09:25;14.80;94.80
43894;DHT22;29556;50.846;4.442;2022-10-16T06:11:51;14.80;94.50
43894;DHT22;29556;50.846;4.442;2022-10-16T06:14:18;14.80;94.50
43894;DHT22;29556;50.846;4.442;2022-10-16T06:16:43;14.80;94.50
43894;DHT22;29556;50.846;4.442;2022-10-16T06:19:09;14.80;94.60
43894;DHT22;29556;50.846;4.442;2022-10-16T06:21:34;14.80;94.50
43894;DHT22;29556;50.846;4.442;2022-10-16T06:24:00;14.80;94.50
43894;DHT22;29556;50.846;4.442;2022-10-16T06:26:27;14.80;94.50
43894;DHT22;29556;50.846;4.442;2022-10-16T06:28:55;14.80;94.70
43894;DHT22;29556;50.846;4.442;2022-10-16T06:31:20;14.80;94.70
43894;DHT22;29556;50.846;4.442;2022-10-16T06:33:50;14.70;94.70
43894;DHT22;29556;50.846;4.442;2022-10-16T06:36:17;14.80;94.80
43894;DHT22;29556;50.846;4.442;2022-10-16T06:38:44;14.80;94.80
43894;DHT22;29556;50.846;4.442;2022-10-16T06:41:13;14.80;94.80
43894;DHT22;29556;50.846;4.442;2022-10-16T06:43:40;14.80;94.90
43894;DHT22;29556;50.846;4.442;2022-10-16T06:46:07;14.80;94.90
43894;DHT22;29556;50.846;4.442;2022-10-16T06:48:34;14.80;95.10
43894;DHT22;29556;50.846;4.442;2022-10-16T06:51:25;14.90;95.20
43894;DHT22;29556;50.846;4.442;2022-10-16T06:53:55;14.90;95.20
43894;DHT22;29556;50.846;4.442;2022-10-16T06:56:26;14.90;95.20
43894;DHT22;29556;50.846;4.442;2022-10-16T06:58:52;14.90;95.20
43894;DHT22;29556;50.846;4.442;2022-10-16T07:01:20;15.00;95.30
43894;DHT22;29556;50.846;4.442;2022-10-16T07:03:46;15.10;95.40
43894;DHT22;29556;50.846;4.442;2022-10-16T07:06:14;15.10;95.30
43894;DHT22;29556;50.846;4.442;2022-10-16T07:08:42;15.10;95.30
43894;DHT22;29556;50.846;4.442;2022-10-16T07:11:12;15.20;95.20
43894;DHT22;29556;50.846;4.442;2022-10-16T07:13:40;15.20;95.20
43894;DHT22;29556;50.846;4.442;2022-10-16T07:16:07;15.20;95.10
43894;DHT22;29556;50.846;4.442;2022-10-16T07:18:33;15.20;95.10
43894;DHT22;29556;50.846;4.442;2022-10-16T07:21:17;15.20;95.20
43894;DHT22;29556;50.846;4.442;2022-10-16T07:23:43;15.30;95.10
43894;DHT22;29556;50.846;4.442;2022-10-16T07:26:10;15.20;95.10
43894;DHT22;29556;50.846;4.442;2022-10-16T07:28:36;15.20;95.10
43894;DHT22;29556;50.846;4.442;2022-10-16T07:31:07;15.30;95.10
43894;DHT22;29556;50.846;4.442;2022-10-16T07:33:34;15.30;95.10
43894;DHT22;29556;50.846;4.442;2022-10-16T07:36:00;15.30;95.00
43894;DHT22;29556;50.846;4.442;2022-10-16T07:38:26;15.30;95.10
43894;DHT22;29556;50.846;4.442;2022-10-16T07:40:59;15.40;95.00
43894;DHT22;29556;50.846;4.442;2022-10-16T07:43:25;15.40;95.10
43894;DHT22;29556;50.846;4.442;2022-10-16T07:45:51;15.40;95.10
43894;DHT22;29556;50.846;4.442;2022-10-16T07:48:18;15.40;95.00
43894;DHT22;29556;50.846;4.442;2022-10-16T07:50:45;15.40;95.00
43894;DHT22;29556;50.846;4.442;2022-10-16T07:53:11;15.40;95.00
43894;DHT22;29556;50.846;4.442;2022-10-16T07:55:37;15.50;95.00
43894;DHT22;29556;50.846;4.442;2022-10-16T07:58:03;15.50;94.90
43894;DHT22;29556;50.846;4.442;2022-10-16T08:00:28;15.60;94.90
43894;DHT22;29556;50.846;4.442;2022-10-16T08:02:54;15.60;94.90
43894;DHT22;29556;50.846;4.442;2022-10-16T08:05:20;15.70;94.80
43894;DHT22;29556;50.846;4.442;2022-10-16T08:07:49;15.70;94.60
43894;DHT22;29556;50.846;4.442;2022-10-16T08:10:19;15.70;94.60
43894;DHT22;29556;50.846;4.442;2022-10-16T08:12:45;15.80;94.60
43894;DHT22;29556;50.846;4.442;2022-10-16T08:15:11;15.80;94.50
43894;DHT22;29556;50.846;4.442;2022-10-16T08:17:37;15.80;94.50
43894;DHT22;29556;50.846;4.442;2022-10-16T08:20:04;15.80;94.30
43894;DHT22;29556;50.846;4.442;2022-10-16T08:22:29;15.80;94.30
43894;DHT22;29556;50.846;4.442;2022-10-16T08:24:55;15.80;94.00
43894;DHT22;29556;50.846;4.442;2022-10-16T08:27:21;15.90;94.10
43894;DHT22;29556;50.846;4.442;2022-10-16T08:29:48;15.90;94.00
43894;DHT22;29556;50.846;4.442;2022-10-16T08:32:14;15.90;93.70
43894;DHT22;29556;50.846;4.442;2022-10-16T08:34:40;15.90;93.70
43894;DHT22;29556;50.846;4.442;2022-10-16T08:37:05;16.00;93.70
43894;DHT22;29556;50.846;4.442;2022-10-16T08:39:34;16.00;93.30
43894;DHT22;29556;50.846;4.442;2022-10-16T08:47:54;16.10;93.10
43894;DHT22;29556;50.846;4.442;2022-10-16T08:50:26;16.10;93.20
43894;DHT22;29556;50.846;4.442;2022-10-16T08:52:55;16.20;93.20
43894;DHT22;29556;50.846;4.442;2022-10-16T08:55:42;16.20;93.00
43894;DHT22;29556;50.846;4.442;2022-10-16T08:58:21;16.30;93.00
43894;DHT22;29556;50.846;4.442;2022-10-16T09:00:53;16.40;93.10
43894;DHT22;29556;50.846;4.442;2022-10-16T09:06:10;16.40;92.90
43894;DHT22;29556;50.846;4.442;2022-10-16T09:11:30;16.60;93.00
43894;DHT22;29556;50.846;4.442;2022-10-16T09:16:57;16.60;92.60
43894;DHT22;29556;50.846;4.442;2022-10-16T09:19:37;16.60;92.30
43894;DHT22;29556;50.846;4.442;2022-10-16T09:22:15;16.60;92.10
43894;DHT22;29556;50.846;4.442;2022-10-16T09:24:41;16.70;91.90
43894;DHT22;29556;50.846;4.442;2022-10-16T09:27:11;16.70;92.00
43894;DHT22;29556;50.846;4.442;2022-10-16T09:29:37;16.80;91.90
43894;DHT22;29556;50.846;4.442;2022-10-16T09:32:22;16.80;91.90
43894;DHT22;29556;50.846;4.442;2022-10-16T09:34:52;17.00;91.90
43894;DHT22;29556;50.846;4.442;2022-10-16T09:37:20;16.90;91.60
43894;DHT22;29556;50.846;4.442;2022-10-16T09:39:54;17.00;91.70
43894;DHT22;29556;50.846;4.442;2022-10-16T09:42:30;17.10;91.80
43894;DHT22;29556;50.846;4.442;2022-10-16T09:44:57;17.00;90.80
43894;DHT22;29556;50.846;4.442;2022-10-16T09:47:25;17.00;90.50
43894;DHT22;29556;50.846;4.442;2022-10-16T09:49:59;17.10;91.00
43894;DHT22;29556;50.846;4.442;2022-10-16T09:52:28;17.10;90.70
43894;DHT22;29556;50.846;4.442;2022-10-16T09:55:09;17.20;90.80
43894;DHT22;29556;50.846;4.442;2022-10-16T09:57:47;17.20;90.10
43894;DHT22;29556;50.846;4.442;2022-10-16T10:00:16;17.20;90.10
43894;DHT22;29556;50.846;4.442;2022-10-16T10:02:43;17.30;90.00
43894;DHT22;29556;50.846;4.442;2022-10-16T10:05:23;17.30;90.00
43894;DHT22;29556;50.846;4.442;2022-10-16T10:07:59;17.40;90.00
43894;DHT22;29556;50.846;4.442;2022-10-16T10:10:30;17.50;90.20
43894;DHT22;29556;50.846;4.442;2022-10-16T10:12:57;17.60;90.00
43894;DHT22;29556;50.846;4.442;2022-10-16T10:15:24;17.70;89.30
43894;DHT22;29556;50.846;4.442;2022-10-16T10:17:56;17.50;87.70
43894;DHT22;29556;50.846;4.442;2022-10-16T10:20:36;17.60;88.00
43894;DHT22;29556;50.846;4.442;2022-10-16T10:23:24;17.70;87.80
43894;DHT22;29556;50.846;4.442;2022-10-16T10:25:59;17.80;88.30
43894;DHT22;29556;50.846;4.442;2022-10-16T10:29:02;17.80;88.10
43894;DHT22;29556;50.846;4.442;2022-10-16T10:31:59;17.80;90.00
43894;DHT22;29556;50.846;4.442;2022-10-16T10:37:43;18.00;90.40
43894;DHT22;29556;50.846;4.442;2022-10-16T10:45:43;18.20;90.00
43894;DHT22;29556;50.846;4.442;2022-10-16T10:50:57;18.20;89.20
43894;DHT22;29556;50.846;4.442;2022-10-16T11:01:40;18.40;87.00
43894;DHT22;29556;50.846;4.442;2022-10-16T11:07:24;18.50;86.50
43894;DHT22;29556;50.846;4.442;2022-10-16T11:09:55;18.50;83.70
43894;DHT22;29556;50.846;4.442;2022-10-16T11:12:29;18.50;86.80
43894;DHT22;29556;50.846;4.442;2022-10-16T11:15:10;18.50;85.40
43894;DHT22;29556;50.846;4.442;2022-10-16T11:20:32;18.50;84.10
43894;DHT22;29556;50.846;4.442;2022-10-16T11:23:18;18.60;85.00
43894;DHT22;29556;50.846;4.442;2022-10-16T11:25:48;18.60;83.30
43894;DHT22;29556;50.846;4.442;2022-10-16T11:28:26;18.70;85.50
43894;DHT22;29556;50.846;4.442;2022-10-16T11:31:02;18.80;86.10
43894;DHT22;29556;50.846;4.442;2022-10-16T11:33:41;18.90;87.10
43894;DHT22;29556;50.846;4.442;2022-10-16T11:36:25;18.90;86.60
43894;DHT22;29556;50.846;4.442;2022-10-16T11:39:19;19.00;88.20
43894;DHT22;29556;50.846;4.442;2022-10-16T11:41:51;19.20;88.40
43894;DHT22;29556;50.846;4.442;2022-10-16T11:49:37;19.30;86.40
43894;DHT22;29556;50.846;4.442;2022-10-16T11:55:36;19.10;85.10
43894;DHT22;29556;50.846;4.442;2022-10-16T11:58:07;19.10;85.60
43894;DHT22;29556;50.846;4.442;2022-10-16T12:00:47;19.00;85.70
43894;DHT22;29556;50.846;4.442;2022-10-16T12:03:26;18.90;86.00
43894;DHT22;29556;50.846;4.442;2022-10-16T12:06:28;18.90;85.00
43894;DHT22;29556;50.846;4.442;2022-10-16T12:08:46;19.00;86.30
43894;DHT22;29556;50.846;4.442;2022-10-16T12:17:00;19.40;86.00
43894;DHT22;29556;50.846;4.442;2022-10-16T12:19:31;19.30;84.40
43894;DHT22;29556;50.846;4.442;2022-10-16T12:21:59;19.40;85.10
43894;DHT22;29556;50.846;4.442;2022-10-16T12:24:39;19.50;84.70
43894;DHT22;29556;50.846;4.442;2022-10-16T12:27:23;19.50;84.60
43894;DHT22;29556;50.846;4.442;2022-10-16T12:29:55;19.40;83.80
43894;DHT22;29556;50.846;4.442;2022-10-16T12:32:31;19.40;84.40
43894;DHT22;29556;50.846;4.442;2022-10-16T12:34:58;19.40;84.70
43894;DHT22;29556;50.846;4.442;2022-10-16T12:39:53;19.60;84.90
43894;DHT22;29556;50.846;4.442;2022-10-16T12:42:32;19.70;85.10
43894;DHT22;29556;50.846;4.442;2022-10-16T12:44:59;19.80;85.00
43894;DHT22;29556;50.846;4.442;2022-10-16T12:49:58;20.00;84.00
43894;DHT22;29556;50.846;4.442;2022-10-16T12:52:42;20.00;84.00
43894;DHT22;29556;50.846;4.442;2022-10-16T12:55:17;20.00;83.50
43894;DHT22;29556;50.846;4.442;2022-10-16T13:00:58;20.10;83.90
43894;DHT22;29556;50.846;4.442;2022-10-16T13:03:54;20.10;83.90
43894;DHT22;29556;50.846;4.442;2022-10-16T13:12:24;20.20;84.90
43894;DHT22;29556;50.846;4.442;2022-10-16T13:15:08;20.20;85.00
43894;DHT22;29556;50.846;4.442;2022-10-16T13:17:42;20.10;84.50
43894;DHT22;29556;50.846;4.442;2022-10-16T13:20:28;20.20;84.90
43894;DHT22;29556;50.846;4.442;2022-10-16T13:23:16;20.20;85.50
43894;DHT22;29556;50.846;4.442;2022-10-16T13:28:32;20.40;85.50
43894;DHT22;29556;50.846;4.442;2022-10-16T13:31:00;20.40;85.40
43894;DHT22;29556;50.846;4.442;2022-10-16T13:33:33;20.50;85.50
43894;DHT22;29556;50.846;4.442;2022-10-16T13:36:00;20.60;85.70
43894;DHT22;29556;50.846;4.442;2022-10-16T13:38:28;20.50;84.10
43894;DHT22;29556;50.846;4.442;2022-10-16T13:46:06;20.70;84.00
43894;DHT22;29556;50.846;4.442;2022-10-16T13:48:33;20.70;83.80
43894;DHT22;29556;50.846;4.442;2022-10-16T13:51:06;20.70;83.90
43894;DHT22;29556;50.846;4.442;2022-10-16T13:53:34;20.70;84.20
43894;DHT22;29556;50.846;4.442;2022-10-16T13:56:01;20.60;84.00
43894;DHT22;29556;50.846;4.442;2022-10-16T13:58:27;20.60;83.40
43894;DHT22;29556;50.846;4.442;2022-10-16T14:01:04;20.60;83.70
43894;DHT22;29556;50.846;4.442;2022-10-16T14:03:33;20.50;83.50
43894;DHT22;29556;50.846;4.442;2022-10-16T14:06:03;20.50;83.70
43894;DHT22;29556;50.846;4.442;2022-10-16T14:08:30;20.50;84.00
43894;DHT22;29556;50.846;4.442;2022-10-16T14:11:01;20.60;84.10
43894;DHT22;29556;50.846;4.442;2022-10-16T14:13:31;20.60;84.10
43894;DHT22;29556;50.846;4.442;2022-10-16T14:16:01;20.50;84.20
43894;DHT22;29556;50.846;4.442;2022-10-16T14:18:27;20.50;84.40
43894;DHT22;29556;50.846;4.442;2022-10-16T14:20:54;20.40;84.60
43894;DHT22;29556;50.846;4.442;2022-10-16T14:23:29;20.40;84.90
43894;DHT22;29556;50.846;4.442;2022-10-16T14:26:16;20.40;85.20
43894;DHT22;29556;50.846;4.442;2022-10-16T14:28:43;20.30;85.10
43894;DHT22;29556;50.846;4.442;2022-10-16T14:31:32;20.30;85.00
43894;DHT22;29556;50.846;4.442;2022-10-16T14:33:59;20.30;85.20
43894;DHT22;29556;50.846;4.442;2022-10-16T14:36:26;20.30;85.50
43894;DHT22;29556;50.846;4.442;2022-10-16T14:39:04;20.20;85.70
43894;DHT22;29556;50.846;4.442;2022-10-16T14:41:32;20.30;86.10
43894;DHT22;29556;50.846;4.442;2022-10-16T14:44:06;20.20;86.20
43894;DHT22;29556;50.846;4.442;2022-10-16T14:46:35;20.20;86.40
43894;DHT22;29556;50.846;4.442;2022-10-16T14:51:39;20.20;86.80
43894;DHT22;29556;50.846;4.442;2022-10-16T14:54:14;20.20;87.00
43894;DHT22;29556;50.846;4.442;2022-10-16T14:56:53;20.10;87.10
43894;DHT22;29556;50.846;4.442;2022-10-16T14:59:30;20.10;87.30
43894;DHT22;29556;50.846;4.442;2022-10-16T15:01:57;20.10;87.30
43894;DHT22;29556;50.846;4.442;2022-10-16T15:04:23;20.10;87.40
43894;DHT22;29556;50.846;4.442;2022-10-16T15:06:49;20.10;87.60
43894;DHT22;29556;50.846;4.442;2022-10-16T15:09:14;20.10;87.60
43894;DHT22;29556;50.846;4.442;2022-10-16T15:11:41;20.00;87.70
43894;DHT22;29556;50.846;4.442;2022-10-16T15:14:11;20.00;87.80
43894;DHT22;29556;50.846;4.442;2022-10-16T15:16:40;20.00;88.20
43894;DHT22;29556;50.846;4.442;2022-10-16T15:19:13;20.00;88.20
43894;DHT22;29556;50.846;4.442;2022-10-16T15:21:39;19.90;88.30
43894;DHT22;29556;50.846;4.442;2022-10-16T15:24:08;19.90;88.30
43894;DHT22;29556;50.846;4.442;2022-10-16T15:26:34;19.90;88.50
43894;DHT22;29556;50.846;4.442;2022-10-16T15:29:00;19.80;88.50
43894;DHT22;29556;50.846;4.442;2022-10-16T15:31:25;19.80;88.60
43894;DHT22;29556;50.846;4.442;2022-10-16T15:33:54;19.80;88.80
43894;DHT22;29556;50.846;4.442;2022-10-16T15:36:31;19.70;88.80
43894;DHT22;29556;50.846;4.442;2022-10-16T15:38:59;19.70;89.70
43894;DHT22;29556;50.846;4.442;2022-10-16T15:41:25;19.60;89.00
43894;DHT22;29556;50.846;4.442;2022-10-16T15:43:51;19.60;89.10
43894;DHT22;29556;50.846;4.442;2022-10-16T15:46:25;19.50;89.10
43894;DHT22;29556;50.846;4.442;2022-10-16T15:48:58;19.40;89.30
43894;DHT22;29556;50.846;4.442;2022-10-16T15:51:25;19.40;89.40
43894;DHT22;29556;50.846;4.442;2022-10-16T15:53:55;19.30;89.40
43894;DHT22;29556;50.846;4.442;2022-10-16T15:56:21;19.30;89.50
43894;DHT22;29556;50.846;4.442;2022-10-16T15:58:51;19.20;89.60
43894;DHT22;29556;50.846;4.442;2022-10-16T16:01:17;19.10;89.70
43894;DHT22;29556;50.846;4.442;2022-10-16T16:03:43;19.10;89.80
43894;DHT22;29556;50.846;4.442;2022-10-16T16:06:11;19.10;89.90
43894;DHT22;29556;50.846;4.442;2022-10-16T16:08:38;19.00;90.00
43894;DHT22;29556;50.846;4.442;2022-10-16T16:11:13;19.00;90.10
43894;DHT22;29556;50.846;4.442;2022-10-16T16:13:39;18.90;90.00
43894;DHT22;29556;50.846;4.442;2022-10-16T16:16:07;18.80;90.00
43894;DHT22;29556;50.846;4.442;2022-10-16T16:18:33;18.80;90.10
43894;DHT22;29556;50.846;4.442;2022-10-16T16:20:58;18.80;90.10
43894;DHT22;29556;50.846;4.442;2022-10-16T16:23:24;18.70;90.20
43894;DHT22;29556;50.846;4.442;2022-10-16T16:26:26;18.70;90.30
43894;DHT22;29556;50.846;4.442;2022-10-16T16:28:53;18.60;90.20
43894;DHT22;29556;50.846;4.442;2022-10-16T16:31:20;18.60;90.30
43894;DHT22;29556;50.846;4.442;2022-10-16T16:33:48;18.60;90.40
43894;DHT22;29556;50.846;4.442;2022-10-16T16:36:17;18.50;90.40
43894;DHT22;29556;50.846;4.442;2022-10-16T16:38:43;18.50;90.50
43894;DHT22;29556;50.846;4.442;2022-10-16T16:41:20;18.50;90.60
43894;DHT22;29556;50.846;4.442;2022-10-16T16:43:47;18.40;90.60
43894;DHT22;29556;50.846;4.442;2022-10-16T16:46:15;18.40;90.60
43894;DHT22;29556;50.846;4.442;2022-10-16T16:48:41;18.30;90.60
43894;DHT22;29556;50.846;4.442;2022-10-16T16:51:10;18.30;91.00
43894;DHT22;29556;50.846;4.442;2022-10-16T16:53:43;18.30;90.70
43894;DHT22;29556;50.846;4.442;2022-10-16T16:56:11;18.20;90.70
43894;DHT22;29556;50.846;4.442;2022-10-16T16:58:36;18.20;90.80
43894;DHT22;29556;50.846;4.442;2022-10-16T17:01:02;18.20;90.90
43894;DHT22;29556;50.846;4.442;2022-10-16T17:03:31;18.20;91.00
43894;DHT22;29556;50.846;4.442;2022-10-16T17:06:03;18.20;91.10
43894;DHT22;29556;50.846;4.442;2022-10-16T17:08:29;18.20;91.10
43894;DHT22;29556;50.846;4.442;2022-10-16T17:10:56;18.10;91.10